Time;durP1;ratioP1;P1;durP2;ratioP2;P2;SDS_P1;SDS_P2;PMS_P1;PMS_P2;Temp;Humidity;BMP_temperature;BMP_pressure;BME280_temperature;BME280_humidity;BME280_pressure;Samples;Min_cycle;Max_cycle;Signal;HPM_P1;HPM_P2
2023/04/08 00:02:15;;;;;;;22.20;20.30;;;;;;;2.28;100.00;97981.77;109884;1288;23352;-91
2023/04/08 00:04:43;;;;;;;23.40;21.40;;;;;;;2.23;100.00;97980.21;109858;1288;22804;-92
2023/04/08 00:07:11;;;;;;;25.20;23.10;;;;;;;2.17;100.00;97980.45;109770;1288;22898;-91
2023/04/08 00:09:39;;;;;;;26.20;23.90;;;;;;;2.11;100.00;97982.16;109802;1288;22221;-88
2023/04/08 00:12:07;;;;;;;27.10;24.90;;;;;;;2.07;100.00;97984.16;109691;1288;22191;-91
2023/04/08 00:14:37;;;;;;;26.40;24.00;;;;;;;2.07;100.00;97987.30;109770;1288;22277;-92
2023/04/08 00:17:05;;;;;;;26.60;24.40;;;;;;;2.05;100.00;97987.36;109768;1288;22364;-91
2023/04/08 00:19:33;;;;;;;26.20;24.10;;;;;;;2.05;100.00;97991.41;109630;1288;199740;-92
2023/04/08 00:22:03;;;;;;;26.30;24.10;;;;;;;2.06;100.00;97991.85;109767;1288;22226;-90
2023/04/08 00:24:31;;;;;;;26.30;24.10;;;;;;;2.08;100.00;97994.54;109659;1288;22245;-91
2023/04/08 00:26:59;;;;;;;29.30;26.90;;;;;;;2.07;100.00;97994.05;109654;1279;22952;-89
2023/04/08 00:29:28;;;;;;;28.20;25.90;;;;;;;2.04;100.00;97993.20;109717;1288;22233;-87
2023/04/08 00:31:56;;;;;;;29.00;26.60;;;;;;;1.99;100.00;97996.89;109741;1288;22830;-90
2023/04/08 00:34:24;;;;;;;29.30;26.90;;;;;;;1.99;100.00;97998.27;109724;1288;22205;-89
2023/04/08 00:36:53;;;;;;;30.30;27.90;;;;;;;2.00;100.00;98001.59;109663;1288;22270;-89
2023/04/08 00:39:21;;;;;;;31.70;29.10;;;;;;;2.01;100.00;97998.10;109641;1288;22220;-89
2023/04/08 00:41:49;;;;;;;31.30;28.80;;;;;;;2.01;100.00;97998.67;109715;1288;22911;-89
2023/04/08 00:44:17;;;;;;;32.60;29.90;;;;;;;2.00;100.00;98001.38;109723;1288;22203;-90
2023/04/08 00:46:46;;;;;;;34.50;31.70;;;;;;;1.96;100.00;98002.85;109701;1288;23027;-91
2023/04/08 00:49:14;;;;;;;38.90;35.70;;;;;;;1.88;100.00;98007.44;109727;1288;23151;-89
2023/04/08 00:51:47;;;;;;;34.70;31.80;;;;;;;1.81;100.00;98010.20;109793;1264;22688;31
2023/04/08 00:54:20;;;;;;;34.30;31.30;;;;;;;1.79;100.00;98011.44;109744;1264;22347;31
2023/04/08 01:00:59;;;;;;;34.80;31.80;;;;;;;1.70;100.00;98012.77;109712;1261;22629;31
2023/04/08 01:07:07;;;;;;;39.50;36.20;;;;;;;1.62;100.00;98012.42;108902;1264;22099;-91
2023/04/08 01:09:46;;;;;;;38.60;35.50;;;;;;;1.58;100.00;98019.98;109811;1263;22542;31
2023/04/08 01:12:27;;;;;;;35.10;32.30;;;;;;;1.55;100.00;98018.50;109540;1264;23265;31
2023/04/08 01:15:05;;;;;;;33.50;30.80;;;;;;;1.54;100.00;98025.25;104945;1264;23590;-84
2023/04/08 01:17:36;;;;;;;32.50;29.90;;;;;;;1.53;100.00;98026.48;108648;1266;22412;-89
2023/04/08 01:20:06;;;;;;;34.60;31.80;;;;;;;1.51;100.00;98025.05;109894;1288;22187;-88
2023/04/08 01:23:24;;;;;;;33.90;31.20;;;;;;;1.47;100.00;98019.52;109848;1259;22440;31
2023/04/08 01:25:53;;;;;;;30.90;28.40;;;;;;;1.41;100.00;98020.23;109580;1290;22195;-87
2023/04/08 01:28:24;;;;;;;31.80;29.30;;;;;;;1.42;100.00;98022.30;109545;1290;22215;-89
2023/04/08 01:30:55;;;;;;;27.50;25.20;;;;;;;1.46;100.00;98024.21;109557;1290;22217;-92
2023/04/08 01:33:26;;;;;;;30.10;27.50;;;;;;;1.46;100.00;98021.19;109753;1260;22439;-90
2023/04/08 01:35:57;;;;;;;29.20;26.80;;;;;;;1.41;100.00;98020.35;109816;1288;22209;-91
2023/04/08 01:38:28;;;;;;;30.70;28.20;;;;;;;1.40;100.00;98022.82;109744;1288;22206;-90
2023/04/08 01:40:56;;;;;;;29.50;27.20;;;;;;;1.35;100.00;98026.19;109655;1288;22166;-90
2023/04/08 01:43:26;;;;;;;30.30;27.90;;;;;;;1.32;100.00;98030.28;109747;1288;23098;-86
2023/04/08 01:45:57;;;;;;;30.30;27.70;;;;;;;1.34;100.00;98029.11;109626;1288;22937;-89
2023/04/08 01:48:27;;;;;;;31.60;29.10;;;;;;;1.36;100.00;98028.50;109668;1288;22297;-91
2023/04/08 01:50:56;;;;;;;33.10;30.50;;;;;;;1.34;100.00;98030.90;109702;1286;22371;-87
2023/04/08 01:53:24;;;;;;;33.10;30.40;;;;;;;1.31;100.00;98030.88;109758;1287;22259;-89
2023/04/08 01:55:57;;;;;;;36.70;33.70;;;;;;;1.25;100.00;98032.23;109664;1285;23023;-90
2023/04/08 01:58:30;;;;;;;34.10;31.20;;;;;;;1.19;100.00;98032.59;109660;1288;22206;-90
2023/04/08 02:00:59;;;;;;;32.40;29.80;;;;;;;1.16;100.00;98033.39;109646;1288;23035;-92
2023/04/08 02:03:28;;;;;;;32.90;30.20;;;;;;;1.14;100.00;98038.83;109755;1288;22205;-89
2023/04/08 02:05:57;;;;;;;33.10;30.40;;;;;;;1.14;100.00;98037.34;109744;1288;22171;-90
2023/04/08 02:08:25;;;;;;;35.10;32.10;;;;;;;1.15;100.00;98041.13;109750;1288;22318;-90
2023/04/08 02:10:54;;;;;;;38.10;35.00;;;;;;;1.12;100.00;98042.02;109837;1288;22083;-87
2023/04/08 02:13:22;;;;;;;37.20;34.30;;;;;;;1.09;100.00;98041.16;109926;1288;22985;-92
2023/04/08 02:15:58;;;;;;;38.20;35.10;;;;;;;1.05;100.00;98041.98;109887;1289;22242;-91
2023/04/08 02:18:28;;;;;;;37.40;34.20;;;;;;;1.05;100.00;98042.35;109890;1288;22242;-95
2023/04/08 02:24:06;;;;;;;38.70;35.60;;;;;;;1.10;100.00;98041.46;109813;1292;22250;-91
2023/04/08 02:26:36;;;;;;;;;;;;;;;1.12;100.00;98041.98;109682;1292;22275;-91
2023/04/08 02:29:05;;;;;;;41.90;38.40;;;;;;;1.07;100.00;98046.54;109486;1291;22166;-88
2023/04/08 02:31:34;;;;;;;37.50;34.40;;;;;;;1.04;100.00;98050.40;109668;1292;22191;-93
2023/04/08 02:34:05;;;;;;;37.30;34.20;;;;;;;1.05;100.00;98055.45;109798;1292;22252;-91
2023/04/08 02:36:33;;;;;;;38.20;35.00;;;;;;;1.05;100.00;98055.15;109861;1292;22237;-92
2023/04/08 02:39:02;;;;;;;35.70;32.60;;;;;;;1.09;100.00;98053.33;109819;1291;21931;-92
2023/04/08 02:41:30;;;;;;;41.70;38.30;;;;;;;1.13;100.00;98055.63;109859;1292;22421;-93
2023/04/08 02:43:58;;;;;;;37.90;34.70;;;;;;;1.14;100.00;98056.09;109792;1292;22624;-93
2023/04/08 02:46:26;;;;;;;36.90;33.50;;;;;;;1.13;100.00;98054.09;109572;1291;22290;-91
2023/04/08 02:48:54;;;;;;;33.80;31.00;;;;;;;1.14;100.00;98050.98;109392;1292;22211;-90
2023/04/08 02:51:22;;;;;;;34.70;31.80;;;;;;;1.16;100.00;98055.38;109494;1292;22203;-90
2023/04/08 02:53:50;;;;;;;33.30;30.50;;;;;;;1.17;100.00;98054.27;109524;1292;22221;-93
2023/04/08 02:56:18;;;;;;;35.00;32.10;;;;;;;1.19;100.00;98057.60;109530;1292;22185;-91
2023/04/08 02:58:46;;;;;;;38.30;35.10;;;;;;;1.18;100.00;98056.84;109634;1289;22300;-91
2023/04/08 03:01:15;;;;;;;37.80;34.70;;;;;;;1.19;100.00;98059.15;109604;1291;22248;-92
2023/04/08 03:03:43;;;;;;;34.50;31.30;;;;;;;1.18;100.00;98062.80;109633;1292;22202;-92
2023/04/08 03:06:11;;;;;;;33.80;30.80;;;;;;;1.18;100.00;98064.27;109614;1292;22290;-87
2023/04/08 03:08:39;;;;;;;34.00;31.20;;;;;;;1.19;100.00;98067.06;109630;1292;22252;-90
2023/04/08 03:11:07;;;;;;;31.70;29.00;;;;;;;1.21;100.00;98064.45;109663;1292;22007;-87
2023/04/08 03:13:35;;;;;;;31.60;29.00;;;;;;;1.22;100.00;98067.02;109768;1264;22845;-89
2023/04/08 03:16:03;;;;;;;34.70;31.80;;;;;;;1.23;100.00;98069.55;109727;1289;22275;-89
2023/04/08 03:18:31;;;;;;;35.30;32.40;;;;;;;1.25;100.00;98072.82;109722;1288;22168;-90
2023/04/08 03:21:00;;;;;;;33.90;30.90;;;;;;;1.24;100.00;98069.18;109722;1289;22325;-89
2023/04/08 03:23:28;;;;;;;33.50;30.70;;;;;;;1.21;100.00;98074.42;109616;1289;22327;-90
2023/04/08 03:25:56;;;;;;;30.50;28.00;;;;;;;1.21;100.00;98076.98;109676;1289;22113;-90
2023/04/08 03:28:24;;;;;;;31.20;28.60;;;;;;;1.25;100.00;98078.23;109685;1289;22261;-90
2023/04/08 03:30:52;;;;;;;31.80;29.10;;;;;;;1.27;100.00;98078.58;109711;1289;22378;-88
2023/04/08 03:33:20;;;;;;;32.00;29.40;;;;;;;1.24;100.00;98078.69;109689;1288;22249;-91
2023/04/08 03:35:48;;;;;;;34.30;31.40;;;;;;;1.20;100.00;98079.70;109782;1289;22150;-92
2023/04/08 03:38:15;;;;;;;32.90;30.10;;;;;;;1.19;100.00;98081.19;109741;1289;22230;-93
2023/04/08 03:40:43;;;;;;;32.20;29.40;;;;;;;1.21;100.00;98081.98;109818;1289;22181;-89
2023/04/08 03:43:12;;;;;;;30.40;27.80;;;;;;;1.25;100.00;98080.19;109813;1289;22245;-92
2023/04/08 03:45:40;;;;;;;34.40;31.40;;;;;;;1.27;100.00;98085.12;109712;1289;22194;-89
2023/04/08 03:48:08;;;;;;;34.80;31.80;;;;;;;1.26;100.00;98087.27;109700;1288;22404;-88
2023/04/08 03:50:36;;;;;;;36.60;33.50;;;;;;;1.24;100.00;98088.27;109688;1289;22203;-90
2023/04/08 03:53:04;;;;;;;34.80;31.90;;;;;;;1.21;100.00;98090.95;109696;1289;22433;-89
2023/04/08 03:55:32;;;;;;;34.80;31.80;;;;;;;1.22;100.00;98092.77;109720;1288;22237;-89
2023/04/08 03:58:00;;;;;;;34.20;31.30;;;;;;;1.26;100.00;98094.61;109695;1289;22283;-90
2023/04/08 04:00:28;;;;;;;34.20;31.30;;;;;;;1.30;100.00;98095.84;109698;1289;22207;-89
2023/04/08 04:02:56;;;;;;;33.70;30.80;;;;;;;1.35;100.00;98092.94;109706;1289;22277;-92
2023/04/08 04:05:24;;;;;;;37.20;34.00;;;;;;;1.35;100.00;98096.80;109749;1289;22212;-90
2023/04/08 04:07:52;;;;;;;38.20;35.20;;;;;;;1.35;100.00;98100.94;109703;1289;22274;-89
2023/04/08 04:10:20;;;;;;;39.50;36.30;;;;;;;1.33;100.00;98102.35;109728;1289;22968;-90
2023/04/08 04:12:49;;;;;;;37.40;34.40;;;;;;;1.32;100.00;98108.05;109696;1289;23062;-91
2023/04/08 04:15:17;;;;;;;35.20;32.30;;;;;;;1.34;100.00;98106.67;109650;1289;22218;-88
2023/04/08 04:17:49;;;;;;;37.90;34.70;;;;;;;1.33;100.00;98112.77;109687;1289;22891;-90
2023/04/08 04:20:17;;;;;;;34.80;31.90;;;;;;;1.35;100.00;98114.91;109637;1289;22196;-86
2023/04/08 04:22:45;;;;;;;36.20;33.20;;;;;;;1.37;100.00;98121.16;109678;1289;22272;-89
2023/04/08 04:25:14;;;;;;;36.30;33.30;;;;;;;1.38;100.00;98123.79;109660;1289;22958;-86
2023/04/08 04:27:41;;;;;;;38.30;35.00;;;;;;;1.40;100.00;98125.80;109666;1289;22200;-85
2023/04/08 04:30:14;;;;;;;43.80;40.10;;;;;;;1.42;100.00;98124.88;109668;1289;22221;-87
2023/04/08 04:32:42;;;;;;;40.30;36.90;;;;;;;1.41;100.00;98128.95;109752;1289;22194;-89
2023/04/08 04:35:11;;;;;;;39.00;35.70;;;;;;;1.38;100.00;98130.37;109760;1289;22170;-90
2023/04/08 04:37:39;;;;;;;37.20;34.10;;;;;;;1.35;100.00;98132.18;109740;1289;22633;-88
2023/04/08 04:40:08;;;;;;;37.80;34.60;;;;;;;1.35;100.00;98136.58;109679;1289;22224;-87
2023/04/08 04:42:36;;;;;;;34.80;31.80;;;;;;;1.38;100.00;98140.09;109684;1289;22984;-87
2023/04/08 04:45:04;;;;;;;35.90;32.80;;;;;;;1.39;100.00;98139.64;109682;1289;22726;-86
2023/04/08 04:47:32;;;;;;;39.00;35.60;;;;;;;1.39;100.00;98144.05;109667;1289;22278;-88
2023/04/08 04:50:00;;;;;;;37.10;33.90;;;;;;;1.39;100.00;98141.92;109736;1289;22265;-92
2023/04/08 04:52:28;;;;;;;37.40;34.20;;;;;;;1.36;100.00;98142.91;109753;1289;22203;-91
2023/04/08 04:54:57;;;;;;;35.20;32.30;;;;;;;1.32;100.00;98148.89;109767;1289;22948;-92
2023/04/08 04:57:25;;;;;;;35.80;32.50;;;;;;;1.32;100.00;98151.02;109697;1289;22251;-89
2023/04/08 04:59:53;;;;;;;32.70;29.90;;;;;;;1.34;100.00;98148.23;109682;1289;22249;-90
2023/04/08 05:02:21;;;;;;;33.80;31.10;;;;;;;1.34;100.00;98150.16;109675;1289;22187;-90
2023/04/08 05:04:52;;;;;;;34.40;31.50;;;;;;;1.33;100.00;98151.67;109693;1289;22289;-87
2023/04/08 05:07:21;;;;;;;32.60;29.90;;;;;;;1.28;100.00;98154.16;109670;1289;22270;-86
2023/04/08 05:09:49;;;;;;;32.60;29.70;;;;;;;1.21;100.00;98156.50;109680;1289;22245;-89
2023/04/08 05:12:19;;;;;;;33.20;30.30;;;;;;;1.17;100.00;98162.52;109662;1281;22371;-86
2023/04/08 05:14:47;;;;;;;31.80;29.20;;;;;;;1.18;100.00;98165.66;109688;1289;22209;-85
2023/04/08 05:17:15;;;;;;;32.60;29.80;;;;;;;1.21;100.00;98166.59;109683;1289;22450;-87
2023/04/08 05:19:43;;;;;;;33.50;30.70;;;;;;;1.22;100.00;98174.73;109661;1289;22192;-86
2023/04/08 05:22:11;;;;;;;34.10;31.20;;;;;;;1.20;100.00;98177.83;109643;1289;22212;-86
2023/04/08 05:24:39;;;;;;;33.60;30.80;;;;;;;1.18;100.00;98177.95;109553;1289;23148;-86
2023/04/08 05:27:08;;;;;;;34.70;31.60;;;;;;;1.20;100.00;98182.53;109707;1289;22246;-88
2023/04/08 05:29:35;;;;;;;31.80;29.10;;;;;;;1.26;100.00;98182.98;109709;1289;22097;-88
2023/04/08 05:32:04;;;;;;;32.30;29.60;;;;;;;1.31;100.00;98184.54;109665;1289;22206;-84
2023/04/08 05:34:32;;;;;;;32.40;29.70;;;;;;;1.34;100.00;98190.98;109646;1289;22236;-86
2023/04/08 05:37:01;;;;;;;31.00;28.40;;;;;;;1.38;100.00;98189.36;109664;1289;22913;-88
2023/04/08 05:39:29;;;;;;;33.00;30.10;;;;;;;1.39;100.00;98190.77;109684;1289;22909;-88
2023/04/08 05:41:56;;;;;;;33.50;30.70;;;;;;;1.40;100.00;98191.16;109686;1289;22231;-88
2023/04/08 05:44:24;;;;;;;33.60;30.70;;;;;;;1.41;100.00;98194.64;109703;1289;22454;-89
2023/04/08 05:46:53;;;;;;;31.80;29.20;;;;;;;1.47;100.00;98191.69;109695;1289;22286;-87
2023/04/08 05:49:20;;;;;;;31.90;29.20;;;;;;;1.55;100.00;98192.39;109694;1289;22102;-91
2023/04/08 05:51:48;;;;;;;30.90;28.20;;;;;;;1.65;100.00;98195.64;109674;1289;22307;-87
2023/04/08 05:54:16;;;;;;;31.70;29.00;;;;;;;1.73;100.00;98198.51;109699;1289;22171;-89
2023/04/08 05:56:45;;;;;;;32.10;29.50;;;;;;;1.79;100.00;98202.52;109685;1289;22195;-89
2023/04/08 05:59:13;;;;;;;34.20;31.30;;;;;;;1.84;100.00;98200.34;109715;1289;22989;-90
2023/04/08 06:01:41;;;;;;;33.00;30.20;;;;;;;1.89;100.00;98205.85;109684;1289;22270;-89
2023/04/08 06:04:09;;;;;;;34.00;31.10;;;;;;;1.94;100.00;98214.04;109677;1289;22184;-87
2023/04/08 06:06:40;;;;;;;31.50;28.80;;;;;;;2.03;100.00;98215.91;109691;1289;22355;-86
2023/04/08 06:09:09;;;;;;;34.80;31.90;;;;;;;2.13;100.00;98215.41;109684;1289;23218;-89
2023/04/08 06:11:36;;;;;;;33.80;31.00;;;;;;;2.25;100.00;98214.85;109558;1289;22279;-87
2023/04/08 06:14:04;;;;;;;36.20;33.20;;;;;;;2.32;100.00;98216.74;109705;1289;22184;-90
2023/04/08 06:16:32;;;;;;;34.00;31.00;;;;;;;2.37;100.00;98220.60;109718;1289;22122;-88
2023/04/08 06:19:00;;;;;;;34.60;31.50;;;;;;;2.39;100.00;98224.97;109740;1289;22303;-89
2023/04/08 06:21:28;;;;;;;30.70;28.10;;;;;;;2.46;100.00;98225.67;109684;1289;22191;-90
2023/04/08 06:23:56;;;;;;;28.90;26.40;;;;;;;2.52;100.00;98230.09;109695;1289;22128;-89
2023/04/08 06:26:25;;;;;;;27.80;25.60;;;;;;;2.57;100.00;98233.95;109675;1289;22239;-90
2023/04/08 06:28:53;;;;;;;30.60;28.10;;;;;;;2.59;100.00;98233.63;109657;1289;23220;-85
2023/04/08 06:31:20;;;;;;;31.20;28.70;;;;;;;2.61;100.00;98238.38;109687;1289;22913;-87
2023/04/08 06:33:48;;;;;;;32.30;29.70;;;;;;;2.66;100.00;98239.45;109691;1289;22215;-88
2023/04/08 06:36:16;;;;;;;29.30;26.90;;;;;;;2.70;100.00;98240.90;109562;1289;22131;-90
2023/04/08 06:38:44;;;;;;;32.30;29.60;;;;;;;2.76;100.00;98242.38;109706;1289;22192;-90
2023/04/08 06:41:12;;;;;;;28.10;25.80;;;;;;;2.94;100.00;98241.15;109691;1289;22273;-88
2023/04/08 06:43:40;;;;;;;26.80;24.60;;;;;;;3.05;100.00;98245.37;109712;1289;22239;-89
2023/04/08 06:46:08;;;;;;;27.80;25.50;;;;;;;3.13;100.00;98250.77;109766;1289;22621;-90
2023/04/08 06:48:36;;;;;;;28.00;25.60;;;;;;;3.23;100.00;98254.23;109603;1289;22206;-92
2023/04/08 06:51:06;;;;;;;27.30;25.00;;;;;;;3.35;100.00;98256.08;109706;1289;22959;-86
2023/04/08 06:53:34;;;;;;;26.00;23.80;;;;;;;3.42;100.00;98250.27;109527;1289;22193;-87
2023/04/08 06:56:02;;;;;;;31.00;28.40;;;;;;;3.57;100.00;98258.05;109675;1289;22680;-87
2023/04/08 06:58:30;;;;;;;27.10;24.80;;;;;;;3.66;99.95;98260.48;109836;1289;22210;-86
2023/04/08 07:01:00;;;;;;;26.30;24.00;;;;;;;3.62;98.29;98259.89;109918;1289;22250;-88
2023/04/08 07:03:28;;;;;;;25.70;23.70;;;;;;;3.55;99.08;98264.52;109832;1289;22124;-85
2023/04/08 07:05:56;;;;;;;25.60;23.30;;;;;;;3.62;99.28;98264.05;109833;1289;22207;-86
2023/04/08 07:08:24;;;;;;;25.70;23.50;;;;;;;3.71;98.34;98265.94;109833;1289;22231;-87
2023/04/08 07:10:52;;;;;;;27.80;25.60;;;;;;;3.78;98.37;98267.58;109681;1289;22157;-87
2023/04/08 07:13:22;;;;;;;30.20;27.60;;;;;;;3.86;98.17;98267.05;109707;1289;22425;-86
2023/04/08 07:20:04;;;;;;;30.40;27.80;;;;;;;4.04;98.54;98264.14;109721;1289;22815;-86
2023/04/08 07:22:32;;;;;;;28.00;25.60;;;;;;;4.14;98.10;98264.86;109684;1289;22236;-88
2023/04/08 07:25:00;;;;;;;28.50;26.00;;;;;;;4.24;97.82;98265.67;109685;1289;22331;-88
2023/04/08 07:27:28;;;;;;;26.00;23.80;;;;;;;4.31;98.05;98268.89;109650;1289;22254;-88
2023/04/08 07:29:57;;;;;;;26.50;24.30;;;;;;;4.34;97.85;98274.75;109716;1289;22213;-87
2023/04/08 07:32:25;;;;;;;24.50;22.30;;;;;;;4.31;97.01;98273.52;109719;1289;22129;-88
2023/04/08 07:34:53;;;;;;;24.10;21.90;;;;;;;4.26;96.63;98272.35;109709;1289;22228;-87
2023/04/08 07:37:21;;;;;;;24.40;22.40;;;;;;;4.27;96.78;98271.90;109877;1289;22192;-87
2023/04/08 07:39:49;;;;;;;23.70;21.60;;;;;;;4.29;96.12;98270.95;109722;1289;22173;-90
2023/04/08 07:42:17;;;;;;;27.90;25.50;;;;;;;4.36;96.19;98274.30;109715;1289;22202;-87
2023/04/08 07:44:45;;;;;;;26.10;23.90;;;;;;;4.52;96.14;98277.41;109558;1289;22416;-87
2023/04/08 07:47:13;;;;;;;25.50;23.00;;;;;;;4.68;95.15;98281.75;109662;1289;22403;-88
2023/04/08 07:49:41;;;;;;;26.60;24.30;;;;;;;4.78;94.48;98278.33;109578;1289;22143;-90
2023/04/08 07:52:09;;;;;;;28.90;26.40;;;;;;;4.82;93.72;98283.13;109699;1289;22490;-91
2023/04/08 07:54:37;;;;;;;28.60;26.20;;;;;;;4.88;94.37;98284.85;109669;1289;22424;-91
2023/04/08 07:57:05;;;;;;;27.30;25.00;;;;;;;4.96;93.24;98293.05;109690;1289;22127;-83
2023/04/08 07:59:33;;;;;;;25.60;23.40;;;;;;;5.05;93.46;98294.19;109643;1289;22248;-85
2023/04/08 08:02:02;;;;;;;27.40;25.00;;;;;;;5.20;93.69;98290.90;109582;1289;22353;-90
2023/04/08 08:04:31;;;;;;;29.20;26.70;;;;;;;5.35;93.81;98290.22;109707;1289;22273;-87
2023/04/08 08:06:59;;;;;;;28.00;25.60;;;;;;;5.47;92.66;98289.14;109714;1289;22295;-90
2023/04/08 08:09:27;;;;;;;28.30;25.80;;;;;;;5.57;93.40;98287.25;109710;1289;22206;-93
2023/04/08 08:11:57;;;;;;;27.60;25.20;;;;;;;5.65;91.48;98290.67;109688;1289;22199;-89
2023/04/08 08:14:25;;;;;;;25.80;23.60;;;;;;;5.68;90.62;98290.00;109677;1289;22349;-83
2023/04/08 08:16:53;;;;;;;23.70;21.70;;;;;;;5.69;90.07;98294.55;109552;1289;22251;-84
2023/04/08 08:19:22;;;;;;;24.10;22.10;;;;;;;5.75;90.93;98291.76;109659;1289;22790;-85
2023/04/08 08:21:51;;;;;;;24.00;21.90;;;;;;;5.86;90.64;98299.31;109675;1289;23100;-82
2023/04/08 08:24:18;;;;;;;24.30;22.10;;;;;;;5.97;89.82;98301.55;109667;1289;22301;-86
2023/04/08 08:26:48;;;;;;;23.90;21.90;;;;;;;5.97;88.13;98302.73;109656;1289;22193;-83
2023/04/08 08:29:16;;;;;;;21.90;20.10;;;;;;;5.97;87.67;98307.48;109544;1289;22429;-83
2023/04/08 08:31:43;;;;;;;24.40;22.40;;;;;;;5.98;87.11;98305.20;109532;1289;22323;-84
2023/04/08 08:34:11;;;;;;;22.80;20.90;;;;;;;5.98;86.97;98307.02;109678;1289;22167;-83
2023/04/08 08:36:39;;;;;;;19.60;17.90;;;;;;;6.05;87.26;98307.21;109688;1289;22419;-83
2023/04/08 08:39:07;;;;;;;19.80;18.10;;;;;;;6.11;85.79;98308.70;109677;1289;22889;-84
2023/04/08 08:41:36;;;;;;;19.40;17.60;;;;;;;6.14;85.66;98310.86;109652;1289;22289;-83
2023/04/08 08:44:05;;;;;;;19.80;18.10;;;;;;;6.21;85.52;98314.41;109671;1289;22260;-81
2023/04/08 08:46:33;;;;;;;21.20;19.40;;;;;;;6.29;84.73;98315.05;109674;1289;22273;-82
2023/04/08 08:49:02;;;;;;;22.10;20.20;;;;;;;6.39;85.66;98317.77;109549;1289;22149;-83
2023/04/08 08:51:31;;;;;;;22.20;20.40;;;;;;;6.47;85.25;98314.91;109563;1289;22245;-83
2023/04/08 08:54:01;;;;;;;22.30;20.50;;;;;;;6.60;85.59;98319.25;109566;1289;22247;-84
2023/04/08 08:56:31;;;;;;;19.30;17.70;;;;;;;6.71;85.50;98322.60;109660;1289;23050;-82
2023/04/08 08:59:00;;;;;;;18.20;16.70;;;;;;;6.88;85.45;98316.88;109517;1289;22450;-82
2023/04/08 09:01:31;;;;;;;17.40;16.00;;;;;;;7.00;83.47;98319.15;109671;1289;22863;-82
2023/04/08 09:04:20;;;;;;;18.00;16.50;;;;;;;7.01;83.24;98325.05;109675;1289;22224;-82
2023/04/08 09:07:03;;;;;;;20.60;18.90;;;;;;;7.04;84.09;98321.26;109659;1289;22299;-82
2023/04/08 09:09:52;;;;;;;19.30;17.60;;;;;;;7.12;83.06;98328.07;109668;1289;22240;-84
2023/04/08 09:12:20;;;;;;;18.90;17.20;;;;;;;7.08;84.19;98322.11;109661;1289;22220;-83
2023/04/08 09:14:49;;;;;;;18.90;17.30;;;;;;;7.11;83.98;98329.95;109663;1289;22109;-85
2023/04/08 09:17:32;;;;;;;20.50;18.70;;;;;;;7.16;84.21;98330.05;109681;1289;22296;-82
2023/04/08 09:20:10;;;;;;;19.00;17.40;;;;;;;7.25;85.41;98331.78;109672;1289;22886;-83
2023/04/08 09:22:58;;;;;;;19.70;18.00;;;;;;;7.37;84.84;98339.04;109551;1289;22196;-83
2023/04/08 09:25:31;;;;;;;19.10;17.50;;;;;;;7.50;84.60;98341.09;109652;1289;23498;-82
2023/04/08 09:28:00;;;;;;;19.30;17.70;;;;;;;7.64;84.61;98339.10;109557;1289;22372;-82
2023/04/08 09:30:31;;;;;;;18.00;16.40;;;;;;;7.76;84.43;98341.58;109677;1272;22200;-81
2023/04/08 09:33:00;;;;;;;17.60;16.20;;;;;;;7.85;84.72;98343.92;109667;1289;22955;-81
2023/04/08 09:35:28;;;;;;;15.60;14.30;;;;;;;7.91;85.36;98349.13;109657;1289;23002;-81
2023/04/08 09:37:59;;;;;;;15.60;14.20;;;;;;;7.97;84.41;98357.17;109653;1289;22209;-81
2023/04/08 09:40:32;;;;;;;17.90;16.40;;;;;;;7.92;83.96;98356.80;109670;1289;22210;-82
2023/04/08 09:43:04;;;;;;;17.20;15.70;;;;;;;7.93;84.32;98362.96;109584;1289;22121;-81
2023/04/08 09:45:35;;;;;;;18.20;16.70;;;;;;;7.88;81.87;98362.60;109665;1270;22221;-83
2023/04/08 09:48:11;;;;;;;14.80;13.60;;;;;;;7.81;81.26;98360.61;109538;1289;22165;-83
2023/04/08 09:50:48;;;;;;;14.30;13.10;;;;;;;7.72;80.39;98360.66;109569;1289;23009;-83
2023/04/08 09:53:29;;;;;;;21.70;19.90;;;;;;;7.64;77.96;98361.90;109662;1289;21999;-84
2023/04/08 09:55:58;;;;;;;22.20;20.20;;;;;;;7.71;80.67;98361.74;109645;1289;22208;-81
2023/04/08 09:59:01;;;;;;;19.50;17.90;;;;;;;8.04;81.09;98360.27;109651;1289;22167;-84
2023/04/08 10:01:38;;;;;;;19.70;18.10;;;;;;;8.24;78.83;98353.58;109503;1289;22695;-83
2023/04/08 10:04:16;;;;;;;18.80;17.30;;;;;;;8.13;79.33;98358.64;109667;1289;22244;-84
2023/04/08 10:06:46;;;;;;;17.90;16.40;;;;;;;8.06;77.58;98362.14;109606;1289;22277;-87
2023/04/08 10:09:14;;;;;;;20.90;19.10;;;;;;;8.06;80.20;98364.35;109511;1289;22093;-87
2023/04/08 10:11:42;;;;;;;18.00;16.40;;;;;;;8.23;78.08;98367.85;109703;1289;22910;-87
2023/04/08 10:14:11;;;;;;;22.30;20.30;;;;;;;8.34;78.65;98370.36;109612;1289;22169;-87
2023/04/08 10:16:39;;;;;;;19.40;17.80;;;;;;;8.36;76.93;98371.00;109600;1289;22193;-86
2023/04/08 10:19:40;;;;;;;22.30;20.20;;;;;;;8.26;76.94;98369.56;109679;1289;22158;-88
2023/04/08 10:22:28;;;;;;;18.30;16.80;;;;;;;8.27;78.35;98366.67;109687;1289;22810;-87
2023/04/08 10:25:15;;;;;;;15.60;14.30;;;;;;;8.43;77.96;98365.20;109668;1289;23086;-87
2023/04/08 10:27:44;;;;;;;16.60;15.20;;;;;;;8.55;78.25;98362.39;109609;1289;22258;-86
2023/04/08 10:30:33;;;;;;;17.60;16.10;;;;;;;8.54;75.14;98364.48;109665;1289;22140;-86
2023/04/08 10:33:08;;;;;;;19.40;17.70;;;;;;;8.49;77.23;98368.27;109686;1289;22126;-85
2023/04/08 10:35:41;;;;;;;19.50;17.90;;;;;;;8.42;74.59;98367.35;109663;1289;22242;-87
2023/04/08 10:38:11;;;;;;;19.10;17.50;;;;;;;8.24;74.99;98369.26;109578;1289;22398;-86
2023/04/08 10:41:21;;;;;;;27.20;25.00;;;;;;;8.06;73.56;98370.67;109605;1289;22190;-90
2023/04/08 10:45:10;;;;;;;20.80;19.20;;;;;;;7.91;76.10;98373.55;109062;1295;22301;-88
2023/04/08 10:49:00;;;;;;;23.30;21.10;;;;;;;7.86;74.88;98375.95;109092;1295;22418;-89
2023/04/08 10:52:47;;;;;;;25.10;22.90;;;;;;;7.69;75.95;98375.90;109079;1295;22235;-89
2023/04/08 10:57:01;;;;;;;21.70;19.90;;;;;;;7.58;75.74;98383.23;109087;1295;22191;-88
2023/04/08 10:59:49;;;;;;;18.50;16.90;;;;;;;7.53;75.46;98377.98;108934;1295;22335;-87
2023/04/08 11:02:16;;;;;;;19.60;17.90;;;;;;;7.50;76.66;98370.33;109262;1289;22224;-86
2023/04/08 11:04:47;;;;;;;19.60;18.00;;;;;;;7.56;76.63;98377.71;109663;1289;22150;-88
2023/04/08 11:07:15;;;;;;;20.10;18.40;;;;;;;7.64;76.43;98376.76;109688;1278;22468;-87
2023/04/08 11:09:43;;;;;;;19.90;18.30;;;;;;;7.75;76.77;98378.42;109679;1289;22289;-87
2023/04/08 11:12:11;;;;;;;19.20;17.50;;;;;;;7.84;75.71;98375.80;109666;1289;22280;-88
2023/04/08 11:14:40;;;;;;;22.30;20.50;;;;;;;7.86;75.94;98378.91;109674;1289;22395;-87
2023/04/08 11:17:09;;;;;;;20.90;19.10;;;;;;;7.87;76.35;98376.17;109662;1289;22840;-87
2023/04/08 11:19:38;;;;;;;19.00;17.40;;;;;;;7.87;75.66;98376.39;109671;1289;23195;-87
2023/04/08 11:22:08;;;;;;;19.00;17.40;;;;;;;7.82;75.69;98381.91;109622;1289;22928;-87
2023/04/08 11:24:36;;;;;;;20.90;19.20;;;;;;;7.73;75.99;98377.52;109591;1289;23072;-90
2023/04/08 11:27:07;;;;;;;21.10;19.30;;;;;;;7.68;76.43;98379.16;109476;1289;22206;-89
2023/04/08 11:29:37;;;;;;;22.10;20.20;;;;;;;7.65;76.40;98379.08;109661;1288;23116;-89
2023/04/08 11:32:05;;;;;;;22.30;20.30;;;;;;;7.59;75.46;98375.84;109682;1289;22278;-89
2023/04/08 11:34:37;;;;;;;23.00;21.00;;;;;;;7.50;75.29;98376.05;109618;1289;22226;-89
2023/04/08 11:37:05;;;;;;;21.80;20.00;;;;;;;7.41;76.22;98378.88;109636;1289;22369;-90
2023/04/08 11:39:39;;;;;;;22.90;21.00;;;;;;;7.37;75.67;98379.36;109646;1277;22227;-88
2023/04/08 11:42:07;;;;;;;21.10;19.40;;;;;;;7.38;75.86;98381.13;109686;1289;23118;-87
2023/04/08 11:44:35;;;;;;;23.20;21.40;;;;;;;7.42;75.56;98375.61;109621;1289;22222;-87
2023/04/08 11:47:03;;;;;;;22.70;20.80;;;;;;;7.35;75.76;98376.73;109663;1289;22214;-87